Wenecja, Włochy

20:29 CEST dnia 20-sierpień-2014 (GMT +0200)
Venezia | Change Station
CLOSE
Current Station
Stacja PWS
Location: Dese, Venezia
n.p.m.: 14 ft
Najbliższa stacja pogodowa
Aktywne zalecenia: ThunderstormsThunderstorms

Wysokość 14 ft 45.53 °N, 12.31 °E | Updated 1 minute ago

Partly Cloudy
niewielkie zachmurzenie
71.4 ° F
Odczuwalna 71 ° F
Płn.
0.0
Wiatr zmienny Wiatr od PdPdWs
Gusts 0.0 mph

Dziś
Wysoka -- | Niska -- ° F
--% Prawdop. opadów
Wczoraj
Wysoka -- | Niska -- ° F
Precip. -- cali
6:17 AM 8:10 PM
Zmniejszający się sierp Księżyca, 20% visible
Ciśnienie 29.86 cali
Widzialność 6.2 mil
chmury Niewiele 2500 ft
Odczucie gorąca 71 ° F
Punkt rosy 66 ° F
Wilgotność 82%
Opady deszczu 0.32 cali
grubość pokrywy śnieżnej Niedostępne.
UV 0 z 12
Pyłki Niedostępne.
Jakość powietrza Niedostępne.
Flu Activity Niedostępne.
METAR LIPZ 201820Z 11004KT 9999 FEW025 23/19 Q1011

More Conditions Fewer Conditions

Ciśnienie 29.86 cali
Widzialność 6.2 mil
chmury Niewiele 2500 ft
Odczucie gorąca 71 ° F
Punkt rosy 66 ° F
Wilgotność 82%
Opady deszczu 0.32 cali
grubość pokrywy śnieżnej Niedostępne.
UV 0 z 12
Pyłki Niedostępne.
Jakość powietrza Niedostępne.
Flu Activity Niedostępne.
METAR LIPZ 201820Z 11004KT 9999 FEW025 23/19 Q1011

More Conditions Fewer Conditions

10-Day Weather Forecast

Almanac

Astronomia

Aug. 20, 2014 Wschód Zachów
Aktualny czas 06:17 CEST 20:10 CEST
Zmierzch cywilny 05:45 CEST 20:41 CEST
Zmierzch żeglarski 05:06 CEST 21:20 CEST
świt/zmierzch astronomiczny 04:23 CEST 22:02 CEST
Księżyc 01:37 CEST 16:47 CEST
całkowite oświetlenie 14h 56m
Długość dnia
13h 53m
Tomorrow will be 2m 55s shorter.
Zmniejszający się sierp Księżyca, 20% of the Moon is Illuminated
Dziś
Zmniejszający się sierp Księżyca
Sierpień 25
Nowy
Wrzesień 2
Pierwsza kwadra
Wrzesień 8
Pełnia Księżyca
Wrzesień 15
Ostatnia kwadra

Dzisiejsze ekstrema

Country Highs Country Lows

Community

WunderPhotos

Upload Photos

1,745,704 zdjęcia zostały przesłane!

WunderBlogs® & News

Nearby

Jakość powietrza

Not available.

Głębokość pokrywy śnieżnej

Not available.

Aktywność sejsmiczna

Miejscowość Distance Mag. Time & Date
No recent earthquake activity has been reported nearby.
Minimum magnitude displayed is 2.5.

Temperatury wody na wybrzeżu

Miejsce Temperatura
Nie znaleziono stacji

Najbliższa stacja pogodowa